createdAt,value
2023-04-07T00:00:30.929Z,35.42
2023-04-07T00:02:57.786Z,35.33
2023-04-07T00:05:24.303Z,35.38
2023-04-07T00:07:56.510Z,35.35
2023-04-07T00:10:24.472Z,35.08
2023-04-07T00:12:50.954Z,35.45
2023-04-07T00:15:17.534Z,35.47
2023-04-07T00:17:44.129Z,35.40
2023-04-07T00:20:11.177Z,35.27
2023-04-07T00:22:37.769Z,35.45
2023-04-07T00:25:04.680Z,35.29
2023-04-07T00:27:31.186Z,35.29
2023-04-07T00:29:57.680Z,35.37
2023-04-07T00:32:24.192Z,35.15
2023-04-07T00:34:51.024Z,35.31
2023-04-07T00:37:17.610Z,35.31
2023-04-07T00:39:44.128Z,35.48
2023-04-07T00:42:11.010Z,35.36
2023-04-07T00:44:37.799Z,35.29
2023-04-07T00:47:04.390Z,35.55
2023-04-07T00:49:31.860Z,35.32
2023-04-07T00:51:58.911Z,35.49
2023-04-07T00:54:25.502Z,35.32
2023-04-07T00:56:53.534Z,35.46
2023-04-07T00:59:20.832Z,35.42
2023-04-07T01:01:59.101Z,35.50
2023-04-07T01:04:44.446Z,35.61
2023-04-07T01:07:35.510Z,35.41
2023-04-07T01:10:07.106Z,35.15
2023-04-07T01:12:47.702Z,35.49
2023-04-07T01:15:17.704Z,35.54
2023-04-07T01:17:48.463Z,35.61
2023-04-07T01:20:19.566Z,35.61
2023-04-07T01:22:51.114Z,35.53
2023-04-07T01:25:26.640Z,35.49
2023-04-07T01:28:08.932Z,35.64
2023-04-07T01:30:39.692Z,35.38
2023-04-07T01:33:08.373Z,35.80
2023-04-07T01:35:37.114Z,35.55
2023-04-07T01:38:05.318Z,35.38
2023-04-07T01:40:35.332Z,35.50
2023-04-07T01:43:03.062Z,35.71
2023-04-07T01:45:31.231Z,35.56
2023-04-07T01:47:58.073Z,35.58
2023-04-07T01:50:26.188Z,35.50
2023-04-07T01:52:53.675Z,35.61
2023-04-07T01:55:21.297Z,35.78
2023-04-07T01:57:47.780Z,35.76
2023-04-07T02:00:14.565Z,35.69
2023-04-07T02:02:44.962Z,35.66
2023-04-07T02:05:14.898Z,35.93
2023-04-07T02:07:46.130Z,35.92
2023-04-07T02:10:16.557Z,35.67
2023-04-07T02:12:46.338Z,35.72
2023-04-07T02:15:13.583Z,35.81
2023-04-07T02:17:43.254Z,35.75
2023-04-07T02:20:12.897Z,36.06
2023-04-07T02:22:39.743Z,36.11
2023-04-07T02:25:23.304Z,36.04
2023-04-07T02:27:50.092Z,36.25
2023-04-07T02:30:16.848Z,36.08
2023-04-07T02:32:43.366Z,36.04
2023-04-07T02:35:10.818Z,36.25
2023-04-07T02:37:37.421Z,35.99
2023-04-07T02:40:05.031Z,35.95
2023-04-07T02:42:31.751Z,36.02
2023-04-07T02:44:58.450Z,35.89
2023-04-07T02:47:25.716Z,35.90
2023-04-07T02:49:52.206Z,36.09
2023-04-07T02:52:18.771Z,36.13
2023-04-07T02:54:45.380Z,36.18
2023-04-07T02:57:11.908Z,36.04
2023-04-07T02:59:38.408Z,36.16
2023-04-07T03:02:05.138Z,36.29
2023-04-07T03:04:31.979Z,36.25
2023-04-07T03:06:58.669Z,36.11
2023-04-07T03:09:25.147Z,36.09
2023-04-07T03:11:51.670Z,36.06
2023-04-07T03:14:18.410Z,36.13
2023-04-07T03:16:46.084Z,36.28
2023-04-07T03:19:12.609Z,36.23
2023-04-07T03:21:39.816Z,36.28
2023-04-07T03:24:07.340Z,36.20
2023-04-07T03:26:33.860Z,36.24
2023-04-07T03:29:00.369Z,36.31
2023-04-07T03:31:27.044Z,36.25
2023-04-07T03:33:53.781Z,36.27
2023-04-07T03:36:20.557Z,36.56
2023-04-07T03:38:47.906Z,36.07
2023-04-07T03:41:14.393Z,36.39
2023-04-07T03:43:41.383Z,36.46
2023-04-07T03:46:08.125Z,36.25
2023-04-07T03:48:34.639Z,36.52
2023-04-07T03:51:01.808Z,36.45
2023-04-07T03:53:28.286Z,36.29
2023-04-07T03:55:54.838Z,36.37
2023-04-07T03:58:21.430Z,36.42
2023-04-07T04:00:47.934Z,36.40
2023-04-07T04:03:14.577Z,36.50
2023-04-07T04:05:41.211Z,36.50
2023-04-07T04:08:07.720Z,36.45
2023-04-07T04:10:34.260Z,36.26
2023-04-07T04:13:00.967Z,36.44
2023-04-07T04:15:27.476Z,36.52
2023-04-07T04:17:54.011Z,36.46
2023-04-07T04:20:22.237Z,36.60
2023-04-07T04:22:48.818Z,36.46
2023-04-07T04:25:17.257Z,36.52
2023-04-07T04:27:43.763Z,36.52
2023-04-07T04:30:10.447Z,36.70
2023-04-07T04:32:37.020Z,36.60
2023-04-07T04:35:03.729Z,36.69
2023-04-07T04:37:30.567Z,36.77
2023-04-07T04:39:57.053Z,36.75
2023-04-07T04:42:23.832Z,36.64
2023-04-07T04:44:50.369Z,36.79
2023-04-07T04:47:17.328Z,36.80
2023-04-07T04:49:43.932Z,36.69
2023-04-07T04:52:10.411Z,36.84
2023-04-07T04:54:36.964Z,36.97
2023-04-07T04:57:03.495Z,36.85
2023-04-07T04:59:30.014Z,36.96
2023-04-07T05:01:56.667Z,36.93
2023-04-07T05:04:23.556Z,36.83
2023-04-07T05:06:51.076Z,37.09
2023-04-07T05:09:17.571Z,36.77
2023-04-07T05:11:44.042Z,36.94
2023-04-07T05:14:10.876Z,37.02
2023-04-07T05:16:37.442Z,36.91
2023-04-07T05:19:04.193Z,36.97
2023-04-07T05:21:30.692Z,36.95
2023-04-07T05:23:57.275Z,37.09
2023-04-07T05:26:23.830Z,36.94
2023-04-07T05:28:50.326Z,37.10
2023-04-07T05:31:16.865Z,36.87
2023-04-07T05:33:43.366Z,37.14
2023-04-07T05:36:09.959Z,37.12
2023-04-07T05:38:36.548Z,37.05
2023-04-07T05:41:03.140Z,37.19
2023-04-07T05:43:29.641Z,37.22
2023-04-07T05:45:56.561Z,36.98
2023-04-07T05:48:23.059Z,37.04
2023-04-07T05:50:49.540Z,37.16
2023-04-07T05:53:16.224Z,36.97
2023-04-07T05:55:43.643Z,36.68
2023-04-07T05:58:10.170Z,37.16
2023-04-07T06:00:36.722Z,37.18
2023-04-07T06:03:03.940Z,37.10
2023-04-07T06:05:30.767Z,36.99
2023-04-07T06:07:57.323Z,37.03
2023-04-07T06:10:23.828Z,37.09
2023-04-07T06:12:50.296Z,37.23
2023-04-07T06:15:16.851Z,37.16
2023-04-07T06:17:45.673Z,37.37
2023-04-07T06:20:12.655Z,37.33
2023-04-07T06:22:39.433Z,37.38
2023-04-07T06:25:07.036Z,37.38
2023-04-07T06:27:33.644Z,37.24
2023-04-07T06:30:00.377Z,37.35
2023-04-07T06:32:26.934Z,37.49
2023-04-07T06:34:53.462Z,37.56
2023-04-07T06:37:19.977Z,37.45
2023-04-07T06:39:46.546Z,37.44
2023-04-07T06:42:13.070Z,37.86
2023-04-07T06:44:39.569Z,37.58
2023-04-07T06:47:06.576Z,37.33
2023-04-07T06:49:34.228Z,37.44
2023-04-07T06:52:01.653Z,37.49
2023-04-07T06:54:28.123Z,37.56
2023-04-07T06:56:54.703Z,37.48
2023-04-07T06:59:21.334Z,37.57
2023-04-07T07:01:49.270Z,37.41
2023-04-07T07:04:15.989Z,37.75
2023-04-07T07:06:42.616Z,37.61
2023-04-07T07:09:09.216Z,37.75
2023-04-07T07:11:35.955Z,37.69
2023-04-07T07:14:02.499Z,37.45
2023-04-07T07:16:29.070Z,37.61
2023-04-07T07:18:55.556Z,37.55
2023-04-07T07:21:22.030Z,37.39
2023-04-07T07:23:48.957Z,37.20
2023-04-07T07:26:16.024Z,37.37
2023-04-07T07:28:42.627Z,37.06
2023-04-07T07:31:13.547Z,37.08
2023-04-07T07:33:41.382Z,36.97
2023-04-07T07:36:08.506Z,37.04
2023-04-07T07:38:37.451Z,37.13
2023-04-07T07:41:04.463Z,36.82
2023-04-07T07:43:30.986Z,36.71
2023-04-07T07:45:57.560Z,36.53
2023-04-07T07:48:24.167Z,36.76
2023-04-07T07:50:51.939Z,36.74
2023-04-07T07:53:19.075Z,36.66
2023-04-07T07:55:46.930Z,36.35
2023-04-07T07:58:13.648Z,36.32
2023-04-07T08:00:40.515Z,36.18
2023-04-07T08:03:07.256Z,36.13
2023-04-07T08:05:33.842Z,36.17
2023-04-07T08:08:00.505Z,35.99
2023-04-07T08:10:27.026Z,36.31
2023-04-07T08:12:53.531Z,36.33
2023-04-07T08:15:20.660Z,35.93
2023-04-07T08:17:47.233Z,35.88
2023-04-07T08:20:13.804Z,35.78
2023-04-07T08:22:40.411Z,35.69
2023-04-07T08:25:07.059Z,35.50
2023-04-07T08:27:34.630Z,35.94
2023-04-07T08:30:04.154Z,35.97
2023-04-07T08:32:57.397Z,36.11
2023-04-07T08:35:23.963Z,36.14
2023-04-07T08:37:50.688Z,36.33
2023-04-07T08:40:17.551Z,36.37
2023-04-07T08:42:47.631Z,36.38
2023-04-07T08:45:16.544Z,36.48
2023-04-07T08:47:43.357Z,36.61
2023-04-07T08:50:11.619Z,36.47
2023-04-07T08:52:55.702Z,36.45
2023-04-07T08:55:26.390Z,36.01
2023-04-07T08:57:54.383Z,36.52
2023-04-07T09:00:21.202Z,36.51
2023-04-07T09:02:49.444Z,36.49
2023-04-07T09:05:16.191Z,36.32
2023-04-07T09:07:46.096Z,36.36
2023-04-07T09:10:12.639Z,36.47
2023-04-07T09:12:39.439Z,36.18
2023-04-07T09:15:07.816Z,36.61
2023-04-07T09:17:34.494Z,36.68
2023-04-07T09:20:01.982Z,36.49
2023-04-07T09:22:42.584Z,36.82
2023-04-07T09:25:16.585Z,36.57
2023-04-07T09:28:03.441Z,37.06
2023-04-07T09:30:32.101Z,36.87
2023-04-07T09:33:00.056Z,36.47
2023-04-07T09:35:28.349Z,36.73
2023-04-07T09:38:09.155Z,36.83
2023-04-07T09:40:37.445Z,36.77
2023-04-07T09:43:05.452Z,37.06
2023-04-07T09:45:35.671Z,36.79
2023-04-07T09:48:08.632Z,36.76
2023-04-07T09:50:39.239Z,36.86
2023-04-07T09:53:05.911Z,36.88
2023-04-07T09:55:33.908Z,36.75
2023-04-07T09:58:00.618Z,37.01
2023-04-07T10:00:27.192Z,36.84
2023-04-07T10:02:54.347Z,36.95
2023-04-07T10:05:22.689Z,55.70
2023-04-07T10:07:49.534Z,59.09
2023-04-07T10:10:16.685Z,58.96
2023-04-07T10:12:44.446Z,57.67
2023-04-07T10:15:16.596Z,56.43
2023-04-07T10:17:51.734Z,52.75
2023-04-07T10:20:21.005Z,50.64
2023-04-07T10:22:51.538Z,49.12
2023-04-07T10:25:21.260Z,47.98
2023-04-07T10:27:52.338Z,46.51
2023-04-07T10:30:24.726Z,44.90
2023-04-07T10:32:54.100Z,44.08
2023-04-07T10:35:22.089Z,43.26
2023-04-07T10:38:07.188Z,42.08
2023-04-07T10:40:35.523Z,41.67
2023-04-07T10:43:02.559Z,41.89
2023-04-07T10:45:48.389Z,41.54
2023-04-07T10:48:17.188Z,40.99
2023-04-07T10:50:45.765Z,40.68
2023-04-07T10:53:16.343Z,40.56
2023-04-07T10:55:47.229Z,40.50
2023-04-07T10:58:28.976Z,39.85
2023-04-07T11:01:07.966Z,39.55
2023-04-07T11:03:40.330Z,39.63
2023-04-07T11:06:12.343Z,40.51
2023-04-07T11:08:44.379Z,39.99
2023-04-07T11:11:13.678Z,39.45
2023-04-07T11:13:43.771Z,39.53
2023-04-07T11:16:11.368Z,39.32
2023-04-07T11:18:38.997Z,38.94
2023-04-07T11:21:06.817Z,38.77
2023-04-07T11:23:44.329Z,38.71
2023-04-07T11:26:12.530Z,38.62
2023-04-07T11:28:47.555Z,38.80
2023-04-07T11:31:26.046Z,38.57
2023-04-07T11:33:57.133Z,38.21
2023-04-07T11:36:41.113Z,38.33
2023-04-07T11:39:20.579Z,38.18
2023-04-07T11:41:51.096Z,37.80
2023-04-07T11:44:17.938Z,37.99
2023-04-07T11:46:59.081Z,38.02
2023-04-07T11:49:28.703Z,38.14
2023-04-07T11:52:03.772Z,37.84
2023-04-07T11:54:43.810Z,38.01
2023-04-07T11:57:12.926Z,37.69
2023-04-07T11:59:41.181Z,37.54
2023-04-07T12:02:08.278Z,39.62
2023-04-07T12:04:37.818Z,44.56
2023-04-07T12:07:11.641Z,42.23
2023-04-07T12:09:38.756Z,41.16
2023-04-07T12:12:07.713Z,40.75
2023-04-07T12:14:35.606Z,40.18
2023-04-07T12:17:03.738Z,39.58
2023-04-07T12:19:36.144Z,39.23
2023-04-07T12:22:03.548Z,38.69
2023-04-07T12:24:32.234Z,38.45
2023-04-07T12:26:59.704Z,37.97
2023-04-07T12:29:26.404Z,37.42
2023-04-07T12:31:53.108Z,37.32
2023-04-07T12:34:19.888Z,37.28
2023-04-07T12:36:46.581Z,36.86
2023-04-07T12:39:13.260Z,36.94
2023-04-07T12:41:53.118Z,36.75
2023-04-07T12:44:20.019Z,36.79
2023-04-07T12:46:47.152Z,36.73
2023-04-07T12:49:13.755Z,36.59
2023-04-07T12:51:40.505Z,36.66
2023-04-07T12:54:07.557Z,36.98
2023-04-07T12:56:34.243Z,36.74
2023-04-07T12:59:00.787Z,36.67
2023-04-07T13:01:27.511Z,37.03
2023-04-07T13:03:54.567Z,34.67
2023-04-07T13:06:21.320Z,35.16
2023-04-07T13:08:47.887Z,34.46
2023-04-07T13:11:14.544Z,34.34
2023-04-07T13:13:41.168Z,34.03
2023-04-07T13:16:08.608Z,33.98
2023-04-07T13:18:35.431Z,34.29
2023-04-07T13:21:19.810Z,34.45
2023-04-07T13:23:50.666Z,34.71
2023-04-07T13:26:17.295Z,34.42
2023-04-07T13:28:46.006Z,34.99
2023-04-07T13:31:15.925Z,35.11
2023-04-07T13:33:42.766Z,35.20
2023-04-07T13:36:09.372Z,35.14
2023-04-07T13:38:36.656Z,35.42
2023-04-07T13:41:04.061Z,35.29
2023-04-07T13:43:30.659Z,35.38
2023-04-07T13:45:57.306Z,35.35
2023-04-07T13:48:23.829Z,35.31
2023-04-07T13:50:50.390Z,35.29
2023-04-07T13:53:18.995Z,35.76
2023-04-07T13:55:46.092Z,35.58
2023-04-07T13:58:12.904Z,35.59
2023-04-07T14:00:40.413Z,35.44
2023-04-07T14:03:08.660Z,35.55
2023-04-07T14:05:36.183Z,36.46
2023-04-07T14:08:02.911Z,36.47
2023-04-07T14:10:29.689Z,36.06
2023-04-07T14:12:56.368Z,36.17
2023-04-07T14:15:23.153Z,35.82
2023-04-07T14:17:49.796Z,35.79
2023-04-07T14:20:16.609Z,35.87
2023-04-07T14:22:49.524Z,35.74
2023-04-07T14:25:16.721Z,35.71
2023-04-07T14:27:43.402Z,35.59
2023-04-07T14:30:10.826Z,35.34
2023-04-07T14:32:37.560Z,35.51
2023-04-07T14:35:04.507Z,35.92
2023-04-07T14:37:31.257Z,35.81
2023-04-07T14:42:29.741Z,36.09
2023-04-07T14:44:56.742Z,36.23
2023-04-07T14:47:23.612Z,35.93
2023-04-07T14:49:53.229Z,36.10
2023-04-07T14:52:21.944Z,36.35
2023-04-07T14:54:48.937Z,36.43
2023-04-07T14:57:16.810Z,36.69
2023-04-07T14:59:43.797Z,36.46
2023-04-07T15:02:10.590Z,36.70
2023-04-07T15:04:37.527Z,36.69
2023-04-07T15:07:05.319Z,36.83
2023-04-07T15:09:32.072Z,36.96
2023-04-07T15:12:00.466Z,37.27
2023-04-07T15:14:29.942Z,37.19
2023-04-07T15:17:05.709Z,37.38
2023-04-07T15:19:35.666Z,37.64
2023-04-07T15:22:09.878Z,37.33
2023-04-07T15:24:42.150Z,37.46
2023-04-07T15:27:26.855Z,37.42
2023-04-07T15:36:31.701Z,37.74
2023-04-07T15:39:04.030Z,37.47
2023-04-07T15:41:30.739Z,37.57
2023-04-07T15:44:00.006Z,37.56
2023-04-07T15:46:27.040Z,37.21
2023-04-07T15:48:53.564Z,37.33
2023-04-07T15:51:20.520Z,37.55
2023-04-07T15:53:47.277Z,37.47
2023-04-07T15:56:13.977Z,37.45
2023-04-07T15:58:40.507Z,37.51
2023-04-07T16:01:08.069Z,37.16
2023-04-07T16:03:34.762Z,37.33
2023-04-07T16:06:01.300Z,37.44
2023-04-07T16:08:27.782Z,37.50
2023-04-07T16:10:54.276Z,37.31
2023-04-07T16:13:20.868Z,37.39
2023-04-07T16:15:47.461Z,37.27
2023-04-07T16:18:14.004Z,37.42
2023-04-07T16:20:40.645Z,37.46
2023-04-07T16:23:07.196Z,37.35
2023-04-07T16:25:33.715Z,37.21
2023-04-07T16:28:00.243Z,37.15
2023-04-07T16:30:26.774Z,37.22
2023-04-07T16:32:53.354Z,37.20
2023-04-07T16:35:20.075Z,37.21
2023-04-07T16:37:46.930Z,37.27
2023-04-07T16:40:13.921Z,37.54
2023-04-07T16:42:40.915Z,37.61
2023-04-07T16:45:07.958Z,37.85
2023-04-07T16:47:35.379Z,37.58
2023-04-07T16:50:04.161Z,37.51
2023-04-07T16:52:31.085Z,37.72
2023-04-07T16:54:58.035Z,37.80
2023-04-07T16:57:24.582Z,37.72
2023-04-07T16:59:51.116Z,37.79
2023-04-07T17:02:17.772Z,37.58
2023-04-07T17:04:44.641Z,37.74
2023-04-07T17:07:11.845Z,37.98
2023-04-07T17:09:38.861Z,37.85
2023-04-07T17:12:08.575Z,37.98
2023-04-07T17:14:35.144Z,37.84
2023-04-07T17:17:02.040Z,37.99
2023-04-07T17:19:28.614Z,37.93
2023-04-07T17:21:55.344Z,37.96
2023-04-07T17:24:22.159Z,38.20
2023-04-07T17:26:48.680Z,38.09
2023-04-07T17:29:16.852Z,38.24
2023-04-07T17:31:44.130Z,38.12
2023-04-07T17:34:11.861Z,38.19
2023-04-07T17:36:38.616Z,38.34
2023-04-07T17:39:05.447Z,38.24
2023-04-07T17:41:34.996Z,38.21
2023-04-07T17:44:01.798Z,38.46
2023-04-07T17:46:28.531Z,38.53
2023-04-07T17:48:55.088Z,38.54
2023-04-07T17:51:21.670Z,39.63
2023-04-07T17:53:48.604Z,40.85
2023-04-07T17:56:15.370Z,40.52
2023-04-07T17:58:41.883Z,40.59
2023-04-07T18:01:10.683Z,40.82
2023-04-07T18:03:38.281Z,40.65
2023-04-07T18:06:06.318Z,40.44
2023-04-07T18:08:33.010Z,39.94
2023-04-07T18:10:59.562Z,39.86
2023-04-07T18:13:26.118Z,39.99
2023-04-07T18:15:53.117Z,39.60
2023-04-07T18:18:20.278Z,39.42
2023-04-07T18:20:46.845Z,39.54
2023-04-07T18:23:13.726Z,39.71
2023-04-07T18:25:40.367Z,39.67
2023-04-07T18:28:06.857Z,39.49
2023-04-07T18:30:33.574Z,39.62
2023-04-07T18:33:00.324Z,39.64
2023-04-07T18:35:27.081Z,39.27
2023-04-07T18:37:53.672Z,39.36
2023-04-07T18:40:20.473Z,39.57
2023-04-07T18:42:47.057Z,39.44
2023-04-07T18:45:16.421Z,39.39
2023-04-07T18:47:43.041Z,39.12
2023-04-07T18:50:10.109Z,39.09
2023-04-07T18:52:36.696Z,39.07
2023-04-07T18:55:04.039Z,39.29
2023-04-07T18:57:30.533Z,39.24
2023-04-07T18:59:57.013Z,39.42
2023-04-07T19:02:23.788Z,39.47
2023-04-07T19:04:50.486Z,39.36
2023-04-07T19:07:17.053Z,39.49
2023-04-07T19:09:43.562Z,39.30
2023-04-07T19:12:11.339Z,39.33
2023-04-07T19:14:37.895Z,39.44
2023-04-07T19:17:04.462Z,39.57
2023-04-07T19:19:31.441Z,39.46
2023-04-07T19:21:57.929Z,39.42
2023-04-07T19:24:24.541Z,39.58
2023-04-07T19:26:52.611Z,39.67
2023-04-07T19:29:19.128Z,39.68
2023-04-07T19:31:45.771Z,39.75
2023-04-07T19:34:12.307Z,40.00
2023-04-07T19:36:38.855Z,39.77
2023-04-07T19:39:05.417Z,39.94
2023-04-07T19:41:32.037Z,39.91
2023-04-07T19:43:58.551Z,39.91
2023-04-07T19:46:25.148Z,39.95
2023-04-07T19:48:51.705Z,40.05
2023-04-07T19:51:18.217Z,39.94
2023-04-07T19:53:44.703Z,40.02
2023-04-07T19:56:11.348Z,40.20
2023-04-07T19:58:38.602Z,40.03
2023-04-07T20:01:05.132Z,40.10
2023-04-07T20:03:32.058Z,40.04
2023-04-07T20:05:59.655Z,40.02
2023-04-07T20:08:26.303Z,39.90
2023-04-07T20:10:53.151Z,39.81
2023-04-07T20:13:20.306Z,39.87
2023-04-07T20:15:49.023Z,40.02
2023-04-07T20:18:18.446Z,39.74
2023-04-07T20:20:45.944Z,39.87
2023-04-07T20:23:12.958Z,39.92
2023-04-07T20:25:39.512Z,39.66
2023-04-07T20:28:06.182Z,39.79
2023-04-07T20:30:32.704Z,39.76
2023-04-07T20:32:59.256Z,40.01
2023-04-07T20:35:26.037Z,39.76
2023-04-07T20:37:52.559Z,39.78
2023-04-07T20:40:19.046Z,39.86
2023-04-07T20:42:46.772Z,39.92
2023-04-07T20:45:13.372Z,39.86
2023-04-07T20:47:40.513Z,39.94
2023-04-07T20:50:08.200Z,39.87
2023-04-07T20:52:39.451Z,40.07
2023-04-07T20:55:07.299Z,40.08
2023-04-07T20:57:33.854Z,40.23
2023-04-07T21:00:01.182Z,40.24
2023-04-07T21:02:27.886Z,40.33
2023-04-07T21:04:54.478Z,40.52
2023-04-07T21:07:21.068Z,40.32
2023-04-07T21:09:47.562Z,40.51
2023-04-07T21:12:14.236Z,40.45
2023-04-07T21:14:40.978Z,40.46
2023-04-07T21:17:07.493Z,40.70
2023-04-07T21:19:33.990Z,40.75
2023-04-07T21:22:01.030Z,40.71
2023-04-07T21:24:29.607Z,41.00
2023-04-07T21:26:56.140Z,40.87
2023-04-07T21:29:22.703Z,40.95
2023-04-07T21:31:49.633Z,40.98
2023-04-07T21:34:16.591Z,40.97
2023-04-07T21:36:43.618Z,41.01
2023-04-07T21:39:10.128Z,40.98
2023-04-07T21:41:37.218Z,40.94
2023-04-07T21:44:07.260Z,41.08
2023-04-07T21:46:34.491Z,41.01
2023-04-07T21:49:00.994Z,41.01
2023-04-07T21:51:27.668Z,41.00
2023-04-07T21:53:54.242Z,41.12
2023-04-07T21:56:21.902Z,40.94
2023-04-07T21:58:48.610Z,40.87
2023-04-07T22:01:15.489Z,41.00
2023-04-07T22:03:42.217Z,41.15
2023-04-07T22:06:08.715Z,41.17
2023-04-07T22:08:35.231Z,41.17
2023-04-07T22:11:01.748Z,41.06
2023-04-07T22:13:28.272Z,40.95
2023-04-07T22:15:55.693Z,41.09
2023-04-07T22:18:22.294Z,41.03
2023-04-07T22:20:48.825Z,41.22
2023-04-07T22:23:15.374Z,41.23
2023-04-07T22:25:41.827Z,41.33
2023-04-07T22:28:08.394Z,41.31
2023-04-07T22:30:34.988Z,41.33
2023-04-07T22:33:01.575Z,41.50
2023-04-07T22:35:28.232Z,41.48
2023-04-07T22:37:54.787Z,41.40
2023-04-07T22:40:21.354Z,41.49
2023-04-07T22:42:47.909Z,41.56
2023-04-07T22:45:14.460Z,41.63
2023-04-07T22:47:41.005Z,41.52
2023-04-07T22:50:07.940Z,41.65
2023-04-07T22:52:34.446Z,41.63
2023-04-07T22:55:01.041Z,41.58
2023-04-07T22:57:29.020Z,41.89
2023-04-07T22:59:55.694Z,41.97
2023-04-07T23:02:22.322Z,41.76
2023-04-07T23:04:49.692Z,41.93
2023-04-07T23:07:16.503Z,41.91
2023-04-07T23:09:43.038Z,41.76
2023-04-07T23:12:09.535Z,42.23
2023-04-07T23:14:36.032Z,42.21
2023-04-07T23:17:02.869Z,42.18
2023-04-07T23:19:29.409Z,41.94
2023-04-07T23:21:55.935Z,42.12
2023-04-07T23:24:22.433Z,42.19
2023-04-07T23:26:48.906Z,42.29
2023-04-07T23:29:15.641Z,42.18
2023-04-07T23:31:42.287Z,42.18
2023-04-07T23:34:08.806Z,42.36
2023-04-07T23:36:35.311Z,42.22
2023-04-07T23:39:02.637Z,42.23
2023-04-07T23:41:29.192Z,42.51
2023-04-07T23:43:55.746Z,42.44
2023-04-07T23:46:24.342Z,42.54
2023-04-07T23:48:51.125Z,42.84
2023-04-07T23:51:17.927Z,42.83
2023-04-07T23:53:44.404Z,42.75
2023-04-07T23:56:11.030Z,43.05
2023-04-07T23:58:37.512Z,43.26
